createdAt,value
2022-10-07T00:01:01.392Z,9.80
2022-10-07T00:03:29.046Z,9.90
2022-10-07T00:06:20.119Z,9.90
2022-10-07T00:08:51.418Z,9.70
2022-10-07T00:11:24.971Z,9.60
2022-10-07T00:13:55.676Z,9.70
2022-10-07T00:16:28.348Z,9.80
2022-10-07T00:18:57.515Z,9.90
2022-10-07T00:21:27.507Z,9.80
2022-10-07T00:23:54.238Z,9.70
2022-10-07T00:26:25.110Z,9.70
2022-10-07T00:28:52.224Z,9.70
2022-10-07T00:31:23.205Z,9.70
2022-10-07T00:33:51.536Z,9.70
2022-10-07T00:36:29.870Z,9.70
2022-10-07T00:39:00.395Z,9.60
2022-10-07T00:41:37.710Z,9.70
2022-10-07T00:44:44.821Z,9.80
2022-10-07T00:47:31.520Z,9.80
2022-10-07T00:50:10.333Z,9.40
2022-10-07T00:52:51.253Z,9.50
2022-10-07T00:55:24.477Z,9.40
2022-10-07T00:57:56.544Z,9.30
2022-10-07T01:00:23.352Z,9.40
2022-10-07T01:02:50.826Z,9.40
2022-10-07T01:05:18.608Z,9.50
2022-10-07T01:07:49.694Z,9.50
2022-10-07T01:10:20.949Z,9.60
2022-10-07T01:13:09.878Z,9.60
2022-10-07T01:16:02.605Z,9.50
2022-10-07T01:18:53.165Z,9.40
2022-10-07T01:23:27.210Z,9.30
2022-10-07T01:26:41.101Z,9.20
2022-10-07T01:29:17.953Z,9.20
2022-10-07T01:31:55.760Z,9.20
2022-10-07T01:34:25.870Z,9.30
2022-10-07T01:36:57.956Z,9.30
2022-10-07T01:39:33.326Z,9.30
2022-10-07T01:42:00.032Z,9.30
2022-10-07T01:44:30.507Z,9.30
2022-10-07T01:46:58.421Z,9.20
2022-10-07T01:49:25.227Z,9.10
2022-10-07T01:54:55.834Z,9.00
2022-10-07T02:00:55.382Z,9.20
2022-10-07T02:05:15.433Z,9.20
2022-10-07T02:08:19.093Z,9.10
2022-10-07T02:11:21.209Z,9.00
2022-10-07T02:14:30.615Z,9.00
2022-10-07T02:17:09.876Z,9.10
2022-10-07T02:19:44.235Z,9.10
2022-10-07T02:22:15.196Z,9.10
2022-10-07T02:24:46.924Z,9.10
2022-10-07T02:27:21.010Z,9.00
2022-10-07T02:29:49.395Z,8.90
2022-10-07T02:32:22.325Z,9.00
2022-10-07T02:35:04.572Z,8.80
2022-10-07T02:37:37.197Z,8.70
2022-10-07T02:40:09.649Z,8.70
2022-10-07T02:42:55.777Z,8.80
2022-10-07T02:45:42.902Z,8.80
2022-10-07T02:48:41.365Z,8.70
2022-10-07T02:51:20.964Z,8.70
2022-10-07T02:53:52.468Z,8.80
2022-10-07T02:56:23.266Z,8.80
2022-10-07T02:58:52.406Z,8.70
2022-10-07T03:01:28.433Z,8.70
2022-10-07T03:03:57.433Z,8.70
2022-10-07T03:06:28.846Z,8.70
2022-10-07T03:08:57.278Z,8.70
2022-10-07T03:11:24.288Z,8.90
2022-10-07T03:13:50.785Z,8.90
2022-10-07T03:16:17.359Z,8.90
2022-10-07T03:18:45.518Z,8.90
2022-10-07T03:21:12.094Z,8.80
2022-10-07T03:23:38.616Z,8.70
2022-10-07T03:26:05.274Z,8.70
2022-10-07T03:28:37.599Z,8.50
2022-10-07T03:31:09.711Z,8.50
2022-10-07T03:33:36.593Z,8.60
2022-10-07T03:36:08.171Z,8.60
2022-10-07T03:38:35.058Z,8.60
2022-10-07T03:41:03.667Z,8.60
2022-10-07T03:43:31.255Z,8.70
2022-10-07T03:46:01.413Z,8.70
2022-10-07T03:48:29.726Z,8.70
2022-10-07T03:50:57.258Z,8.70
2022-10-07T03:53:25.663Z,8.70
2022-10-07T03:55:52.326Z,8.70
2022-10-07T03:58:18.802Z,8.70
2022-10-07T04:00:45.322Z,8.60
2022-10-07T04:03:15.045Z,8.60
2022-10-07T04:05:42.654Z,8.50
2022-10-07T04:08:16.600Z,8.30
2022-10-07T04:10:43.110Z,8.30
2022-10-07T04:13:09.569Z,8.30
2022-10-07T04:15:36.844Z,8.40
2022-10-07T04:18:03.417Z,8.40
2022-10-07T04:20:29.904Z,8.40
2022-10-07T04:22:56.361Z,8.40
2022-10-07T04:25:34.888Z,8.40
2022-10-07T04:28:06.112Z,8.50
2022-10-07T04:30:39.309Z,8.50
2022-10-07T04:33:07.307Z,8.30
2022-10-07T04:35:38.145Z,8.40
2022-10-07T04:38:07.681Z,8.50
2022-10-07T04:40:40.205Z,8.40
2022-10-07T04:43:26.075Z,8.40
2022-10-07T04:46:03.346Z,8.30
2022-10-07T04:48:30.450Z,8.30
2022-10-07T04:51:02.439Z,8.30
2022-10-07T04:53:28.992Z,8.30
2022-10-07T04:55:55.711Z,8.20
2022-10-07T04:58:22.206Z,8.30
2022-10-07T05:00:51.583Z,8.20
2022-10-07T05:03:21.154Z,8.40
2022-10-07T05:05:51.371Z,8.40
2022-10-07T05:08:20.684Z,8.40
2022-10-07T05:10:47.562Z,8.40
2022-10-07T05:13:16.200Z,8.40
2022-10-07T05:15:58.745Z,8.40
2022-10-07T05:18:27.439Z,8.40
2022-10-07T05:20:54.690Z,8.40
2022-10-07T05:23:28.109Z,8.40
2022-10-07T05:26:01.279Z,8.40
2022-10-07T05:28:27.911Z,8.40
2022-10-07T05:31:08.710Z,8.40
2022-10-07T05:33:36.293Z,8.50
2022-10-07T05:36:04.329Z,8.60
2022-10-07T05:38:30.910Z,8.80
2022-10-07T05:40:59.903Z,8.90
2022-10-07T05:43:32.685Z,9.10
2022-10-07T05:46:22.869Z,9.30
2022-10-07T05:48:52.862Z,9.30
2022-10-07T05:51:21.985Z,9.50
2022-10-07T05:53:48.924Z,9.60
2022-10-07T05:56:21.436Z,9.60
2022-10-07T05:58:49.654Z,9.80
2022-10-07T06:01:22.391Z,10.00
2022-10-07T06:03:52.522Z,10.00
2022-10-07T06:06:20.145Z,10.10
2022-10-07T06:08:48.328Z,10.20
2022-10-07T06:11:35.513Z,10.30
2022-10-07T06:14:03.276Z,10.40
2022-10-07T06:16:30.114Z,10.60
2022-10-07T06:18:56.968Z,10.80
2022-10-07T06:21:27.024Z,10.90
2022-10-07T06:23:55.343Z,10.90
2022-10-07T06:26:22.445Z,11.00
2022-10-07T06:28:49.539Z,11.20
2022-10-07T06:31:21.709Z,11.30
2022-10-07T06:33:49.347Z,11.40
2022-10-07T06:36:16.412Z,11.50
2022-10-07T06:38:51.603Z,11.70
2022-10-07T06:41:20.499Z,11.90
2022-10-07T06:43:47.379Z,12.10
2022-10-07T06:46:19.585Z,12.30
2022-10-07T06:48:47.059Z,12.50
2022-10-07T06:51:19.847Z,12.70
2022-10-07T06:53:51.526Z,12.80
2022-10-07T06:56:18.612Z,13.10
2022-10-07T06:58:45.110Z,13.30
2022-10-07T07:01:12.339Z,13.40
2022-10-07T07:03:39.769Z,13.50
2022-10-07T07:06:07.724Z,13.70
2022-10-07T07:08:34.679Z,13.60
2022-10-07T07:11:29.239Z,13.60
2022-10-07T07:13:56.209Z,13.70
2022-10-07T07:16:23.621Z,13.70
2022-10-07T07:18:55.973Z,13.80
2022-10-07T07:21:24.934Z,13.90
2022-10-07T07:23:51.802Z,14.00
2022-10-07T07:26:19.605Z,14.00
2022-10-07T07:29:02.096Z,14.00
2022-10-07T07:31:32.478Z,14.10
2022-10-07T07:34:02.516Z,14.40
2022-10-07T07:36:34.130Z,14.80
2022-10-07T07:39:05.765Z,14.90
2022-10-07T07:41:36.561Z,14.90
2022-10-07T07:44:08.215Z,15.00
2022-10-07T07:46:47.057Z,15.10
2022-10-07T07:49:15.217Z,15.20
2022-10-07T07:51:44.531Z,15.40
2022-10-07T07:54:12.853Z,15.40
2022-10-07T07:56:39.433Z,15.60
2022-10-07T07:59:07.499Z,15.70
2022-10-07T08:01:35.240Z,15.80
2022-10-07T08:04:03.485Z,16.00
2022-10-07T08:06:30.716Z,16.20
2022-10-07T08:08:58.594Z,16.10
2022-10-07T08:11:26.561Z,16.20
2022-10-07T08:13:55.389Z,16.30
2022-10-07T08:16:25.242Z,16.40
2022-10-07T08:18:54.656Z,16.50
2022-10-07T08:21:26.193Z,16.60
2022-10-07T08:23:58.071Z,16.90
2022-10-07T08:26:30.441Z,17.10
2022-10-07T08:28:57.737Z,17.10
2022-10-07T08:31:27.543Z,17.20
2022-10-07T08:33:59.796Z,17.40
2022-10-07T08:36:29.276Z,17.40
2022-10-07T08:38:56.266Z,17.60
2022-10-07T08:42:39.771Z,17.50
2022-10-07T08:45:13.038Z,17.60
2022-10-07T08:47:46.670Z,17.80
2022-10-07T08:50:30.241Z,17.90
2022-10-07T08:53:14.855Z,18.00
2022-10-07T08:56:07.141Z,18.20
2022-10-07T08:59:34.576Z,18.30
2022-10-07T09:05:32.888Z,18.50
2022-10-07T09:08:10.052Z,18.70
2022-10-07T09:10:59.198Z,18.90
2022-10-07T09:13:39.654Z,19.10
2022-10-07T09:16:17.088Z,19.50
2022-10-07T09:18:55.485Z,19.70
2022-10-07T09:21:41.625Z,19.90
2022-10-07T09:24:30.223Z,19.90
2022-10-07T09:27:02.292Z,20.00
2022-10-07T09:29:30.283Z,20.00
2022-10-07T09:31:57.786Z,19.90
2022-10-07T09:34:28.291Z,19.80
2022-10-07T09:37:34.725Z,19.90
2022-10-07T09:41:19.116Z,19.90
2022-10-07T09:44:52.914Z,20.00
2022-10-07T09:47:31.547Z,20.20
2022-10-07T09:49:59.106Z,20.30
2022-10-07T09:52:31.234Z,20.20
2022-10-07T09:55:39.507Z,20.10
2022-10-07T09:58:25.225Z,20.20
2022-10-07T10:00:55.907Z,20.30
2022-10-07T10:03:33.988Z,20.40
2022-10-07T10:06:04.376Z,20.50
2022-10-07T10:08:37.905Z,20.50
2022-10-07T10:11:23.229Z,20.60
2022-10-07T10:13:51.806Z,20.70
2022-10-07T10:16:39.751Z,20.60
2022-10-07T10:19:24.702Z,20.60
2022-10-07T10:21:56.281Z,20.60
2022-10-07T10:24:42.998Z,20.50
2022-10-07T10:30:20.119Z,20.60
2022-10-07T10:39:10.294Z,20.60
2022-10-07T10:42:04.012Z,20.30
2022-10-07T10:45:46.261Z,20.60
2022-10-07T10:48:39.832Z,20.80
2022-10-07T10:54:27.241Z,20.80
2022-10-07T11:03:59.837Z,20.80
2022-10-07T11:06:32.072Z,20.80
2022-10-07T11:09:00.780Z,20.50
2022-10-07T11:11:28.400Z,20.40
2022-10-07T11:14:04.816Z,20.50
2022-10-07T11:16:40.605Z,20.40
2022-10-07T11:19:26.041Z,20.50
2022-10-07T11:21:57.088Z,20.50
2022-10-07T11:24:40.189Z,20.70
2022-10-07T11:27:32.653Z,20.80
2022-10-07T11:30:23.195Z,20.90
2022-10-07T11:32:59.452Z,21.20
2022-10-07T11:35:33.239Z,21.20
2022-10-07T11:38:21.899Z,21.40
2022-10-07T11:40:57.136Z,21.30
2022-10-07T11:44:17.216Z,21.20
2022-10-07T11:46:46.759Z,21.00
2022-10-07T11:51:13.459Z,21.10
2022-10-07T11:53:40.147Z,21.00
2022-10-07T11:56:21.601Z,21.10
2022-10-07T11:59:06.702Z,21.20
2022-10-07T12:01:49.316Z,21.30
2022-10-07T12:04:37.463Z,21.40
2022-10-07T12:09:06.179Z,21.60
2022-10-07T12:11:46.933Z,21.70
2022-10-07T12:14:32.870Z,22.00
2022-10-07T12:17:22.396Z,21.90
2022-10-07T12:21:19.839Z,21.80
2022-10-07T12:23:46.386Z,21.70
2022-10-07T12:28:56.620Z,21.60
2022-10-07T12:31:46.268Z,21.50
2022-10-07T12:34:34.632Z,21.40
2022-10-07T12:37:54.793Z,21.50
2022-10-07T12:40:27.950Z,21.20
2022-10-07T12:43:10.723Z,21.20
2022-10-07T12:45:42.648Z,21.30
2022-10-07T12:48:21.303Z,21.40
2022-10-07T12:50:52.938Z,21.20
2022-10-07T12:53:25.467Z,21.40
2022-10-07T12:55:55.414Z,21.10
2022-10-07T13:00:19.480Z,21.00
2022-10-07T13:03:57.853Z,21.00
2022-10-07T13:07:14.083Z,21.20
2022-10-07T13:10:23.586Z,21.20
2022-10-07T13:13:03.578Z,21.30
2022-10-07T13:15:58.456Z,21.20
2022-10-07T13:19:14.641Z,21.10
2022-10-07T13:22:15.140Z,21.30
2022-10-07T13:24:50.845Z,21.20
2022-10-07T13:27:29.422Z,21.20
2022-10-07T13:29:59.165Z,21.20
2022-10-07T13:32:31.297Z,21.20
2022-10-07T13:34:59.502Z,21.20
2022-10-07T13:37:33.010Z,21.40
2022-10-07T13:40:25.587Z,21.20
2022-10-07T13:43:08.955Z,21.20
2022-10-07T13:45:44.208Z,21.20
2022-10-07T13:48:26.869Z,21.10
2022-10-07T13:50:58.554Z,21.00
2022-10-07T13:53:35.164Z,21.00
2022-10-07T13:56:26.001Z,21.00
2022-10-07T13:58:55.562Z,21.20
2022-10-07T14:01:27.065Z,21.10
2022-10-07T14:07:53.415Z,21.00
2022-10-07T14:10:22.807Z,20.90
2022-10-07T14:13:00.005Z,21.00
2022-10-07T14:15:33.664Z,21.00
2022-10-07T14:18:09.819Z,21.10
2022-10-07T14:20:47.036Z,21.10
2022-10-07T14:23:33.452Z,20.90
2022-10-07T14:26:10.545Z,21.00
2022-10-07T14:28:39.716Z,21.00
2022-10-07T14:31:45.734Z,20.80
2022-10-07T14:34:37.570Z,20.80
2022-10-07T14:37:28.476Z,20.80
2022-10-07T14:39:57.496Z,20.90
2022-10-07T14:42:29.556Z,20.80
2022-10-07T14:44:57.241Z,20.80
2022-10-07T14:47:27.486Z,20.60
2022-10-07T14:49:58.660Z,20.70
2022-10-07T14:52:44.585Z,20.70
2022-10-07T14:55:27.848Z,20.60
2022-10-07T14:57:54.524Z,20.50
2022-10-07T15:00:33.742Z,20.50
2022-10-07T15:03:02.554Z,20.40
2022-10-07T15:05:32.283Z,20.30
2022-10-07T15:07:59.942Z,20.20
2022-10-07T15:10:26.864Z,20.10
2022-10-07T15:12:55.306Z,20.20
2022-10-07T15:15:21.842Z,20.30
2022-10-07T15:17:48.315Z,20.20
2022-10-07T15:20:16.293Z,20.10
2022-10-07T15:22:44.656Z,20.10
2022-10-07T15:25:14.292Z,20.10
2022-10-07T15:27:40.833Z,20.00
2022-10-07T15:30:08.565Z,20.00
2022-10-07T15:32:35.075Z,20.00
2022-10-07T15:35:01.701Z,19.90
2022-10-07T15:37:28.175Z,20.00
2022-10-07T15:39:55.118Z,19.90
2022-10-07T15:42:24.132Z,19.90
2022-10-07T15:44:51.230Z,19.90
2022-10-07T15:47:17.845Z,19.80
2022-10-07T15:49:44.319Z,19.80
2022-10-07T15:52:11.462Z,19.70
2022-10-07T15:54:38.313Z,19.80
2022-10-07T15:57:05.025Z,19.60
2022-10-07T15:59:31.507Z,19.50
2022-10-07T16:01:58.098Z,19.30
2022-10-07T16:04:24.849Z,19.30
2022-10-07T16:06:51.369Z,19.20
2022-10-07T16:09:22.774Z,19.20
2022-10-07T16:11:49.373Z,19.10
2022-10-07T16:14:16.258Z,19.10
2022-10-07T16:16:42.749Z,19.30
2022-10-07T16:19:10.974Z,19.20
2022-10-07T16:21:40.805Z,19.10
2022-10-07T16:24:20.395Z,19.00
2022-10-07T16:26:51.724Z,19.00
2022-10-07T16:29:39.854Z,19.00
2022-10-07T16:32:09.812Z,19.00
2022-10-07T16:34:39.806Z,18.90
2022-10-07T16:37:06.289Z,18.70
2022-10-07T16:39:32.797Z,18.70
2022-10-07T16:41:59.388Z,18.60
2022-10-07T16:44:26.985Z,18.50
2022-10-07T16:46:58.371Z,18.50
2022-10-07T16:49:26.774Z,18.40
2022-10-07T16:51:53.727Z,18.20
2022-10-07T16:54:21.179Z,18.20
2022-10-07T16:56:51.774Z,18.10
2022-10-07T16:59:24.324Z,18.00
2022-10-07T17:01:54.923Z,18.00
2022-10-07T17:04:21.791Z,18.00
2022-10-07T17:06:48.453Z,18.00
2022-10-07T17:09:16.659Z,18.10
2022-10-07T17:11:43.266Z,18.20
2022-10-07T17:14:16.676Z,18.20
2022-10-07T17:16:56.637Z,18.10
2022-10-07T17:19:27.006Z,18.10
2022-10-07T17:21:55.748Z,18.10
2022-10-07T17:24:23.534Z,18.10
2022-10-07T17:26:52.152Z,18.00
2022-10-07T17:29:21.352Z,18.00
2022-10-07T17:31:49.665Z,17.90
2022-10-07T17:34:21.522Z,18.00
2022-10-07T17:36:49.423Z,17.90
2022-10-07T17:39:18.198Z,17.80
2022-10-07T17:41:45.066Z,17.90
2022-10-07T17:44:12.783Z,17.80
2022-10-07T17:46:40.987Z,17.70
2022-10-07T17:49:13.692Z,17.60
2022-10-07T17:51:42.125Z,17.60
2022-10-07T17:54:12.861Z,17.60
2022-10-07T17:56:39.497Z,17.50
2022-10-07T17:59:06.015Z,17.50
2022-10-07T18:01:34.714Z,17.50
2022-10-07T18:04:04.878Z,17.50
2022-10-07T18:06:34.194Z,17.60
2022-10-07T18:09:03.609Z,17.40
2022-10-07T18:11:48.959Z,17.40
2022-10-07T18:14:34.224Z,17.30
2022-10-07T18:17:01.031Z,17.30
2022-10-07T18:19:28.711Z,17.20
2022-10-07T18:21:55.704Z,17.20
2022-10-07T18:24:26.405Z,17.10
2022-10-07T18:26:54.323Z,17.30
2022-10-07T18:29:20.869Z,17.50
2022-10-07T18:31:47.462Z,17.50
2022-10-07T18:34:14.031Z,17.40
2022-10-07T18:36:40.491Z,17.40
2022-10-07T18:39:11.558Z,17.30
2022-10-07T18:41:38.442Z,17.20
2022-10-07T18:44:05.377Z,17.30
2022-10-07T18:46:32.535Z,17.40
2022-10-07T18:48:58.987Z,17.30
2022-10-07T18:51:25.474Z,17.30
2022-10-07T18:53:51.952Z,17.30
2022-10-07T18:56:22.820Z,17.40
2022-10-07T18:58:52.124Z,17.40
2022-10-07T19:01:22.632Z,17.40
2022-10-07T19:03:59.572Z,17.40
2022-10-07T19:06:27.437Z,17.30
2022-10-07T19:09:00.520Z,17.20
2022-10-07T19:11:29.582Z,17.10
2022-10-07T19:13:58.357Z,17.00
2022-10-07T19:16:40.760Z,16.90
2022-10-07T19:19:17.216Z,16.80
2022-10-07T19:21:50.735Z,16.70
2022-10-07T19:24:18.224Z,16.80
2022-10-07T19:26:49.138Z,16.90
2022-10-07T19:29:17.137Z,17.00
2022-10-07T19:31:47.852Z,16.90
2022-10-07T19:34:18.565Z,16.80
2022-10-07T19:36:46.372Z,16.80
2022-10-07T19:39:16.611Z,16.90
2022-10-07T19:41:43.777Z,16.90
2022-10-07T19:44:11.864Z,16.80
2022-10-07T19:46:38.376Z,16.70
2022-10-07T19:49:06.407Z,16.60
2022-10-07T19:51:33.849Z,16.50
2022-10-07T19:54:05.470Z,16.50
2022-10-07T19:56:34.848Z,16.40
2022-10-07T19:59:05.372Z,16.40
2022-10-07T20:01:43.748Z,16.40
2022-10-07T20:04:18.110Z,16.30
2022-10-07T20:06:44.710Z,16.40
2022-10-07T20:09:15.451Z,16.30
2022-10-07T20:11:42.399Z,16.40
2022-10-07T20:14:09.332Z,16.50
2022-10-07T20:16:37.421Z,16.60
2022-10-07T20:19:14.642Z,16.50
2022-10-07T20:21:41.393Z,16.40
2022-10-07T20:24:09.131Z,16.30
2022-10-07T20:26:37.945Z,16.20
2022-10-07T20:29:07.142Z,16.20
2022-10-07T20:31:37.968Z,16.20
2022-10-07T20:34:06.687Z,16.30
2022-10-07T20:36:36.821Z,16.30
2022-10-07T20:39:35.192Z,16.30
2022-10-07T20:42:24.819Z,16.20
2022-10-07T20:44:52.890Z,16.20
2022-10-07T20:47:21.219Z,16.10
2022-10-07T20:49:49.973Z,16.10
2022-10-07T20:52:23.402Z,16.00
2022-10-07T20:54:51.630Z,16.10
2022-10-07T20:57:25.217Z,16.10
2022-10-07T20:59:51.772Z,16.00
2022-10-07T21:02:21.387Z,16.00
2022-10-07T21:04:47.962Z,15.90
2022-10-07T21:07:17.004Z,15.80
2022-10-07T21:09:43.945Z,15.80
2022-10-07T21:12:14.632Z,15.80
2022-10-07T21:14:47.056Z,15.90
2022-10-07T21:17:14.625Z,15.80
2022-10-07T21:19:41.126Z,15.90
2022-10-07T21:22:08.212Z,15.80
2022-10-07T21:24:35.039Z,15.80
2022-10-07T21:27:06.563Z,15.80
2022-10-07T21:29:37.489Z,15.80
2022-10-07T21:32:07.592Z,15.70
2022-10-07T21:34:34.100Z,15.70
2022-10-07T21:37:00.595Z,15.60
2022-10-07T21:39:27.278Z,15.60
2022-10-07T21:41:54.114Z,15.60
2022-10-07T21:44:20.909Z,15.50
2022-10-07T21:46:47.385Z,15.40
2022-10-07T21:49:15.074Z,15.40
2022-10-07T21:51:42.749Z,15.40
2022-10-07T21:54:15.604Z,15.40
2022-10-07T21:56:45.159Z,15.30
2022-10-07T21:59:12.196Z,15.30
2022-10-07T22:01:38.866Z,15.20
2022-10-07T22:04:06.533Z,15.10
2022-10-07T22:06:51.629Z,15.10
2022-10-07T22:09:20.596Z,15.10
2022-10-07T22:11:47.994Z,15.10
2022-10-07T22:14:14.485Z,15.10
2022-10-07T22:16:41.520Z,15.10
2022-10-07T22:19:08.498Z,15.10
2022-10-07T22:21:39.213Z,15.10
2022-10-07T22:24:07.373Z,15.00
2022-10-07T22:26:41.358Z,14.90
2022-10-07T22:29:10.386Z,14.80
2022-10-07T22:31:37.625Z,14.70
2022-10-07T22:34:05.417Z,14.60
2022-10-07T22:36:31.922Z,14.50
2022-10-07T22:38:59.102Z,14.40
2022-10-07T22:41:26.705Z,14.30
2022-10-07T22:43:53.542Z,14.30
2022-10-07T22:46:25.518Z,14.30
2022-10-07T22:48:57.155Z,14.20
2022-10-07T22:51:27.593Z,14.20
2022-10-07T22:53:55.826Z,14.00
2022-10-07T22:56:25.467Z,14.00
2022-10-07T22:58:59.015Z,14.00
2022-10-07T23:01:30.442Z,14.10
2022-10-07T23:04:02.357Z,14.10
2022-10-07T23:06:32.281Z,14.10
2022-10-07T23:08:59.832Z,14.20
2022-10-07T23:11:28.366Z,14.10
2022-10-07T23:13:55.467Z,14.10
2022-10-07T23:16:26.384Z,14.00
2022-10-07T23:18:53.016Z,13.90
2022-10-07T23:21:28.633Z,13.90
2022-10-07T23:24:06.908Z,13.70
2022-10-07T23:26:35.650Z,13.60
2022-10-07T23:29:02.904Z,13.50
2022-10-07T23:31:32.254Z,13.50
2022-10-07T23:34:01.168Z,13.50
2022-10-07T23:36:28.476Z,13.50
2022-10-07T23:38:55.226Z,13.40
2022-10-07T23:41:25.021Z,13.40
2022-10-07T23:43:56.923Z,13.30
2022-10-07T23:46:26.531Z,13.20
2022-10-07T23:48:54.143Z,13.20
2022-10-07T23:51:24.290Z,13.10
2022-10-07T23:53:50.825Z,13.10
2022-10-07T23:56:20.108Z,13.10
2022-10-07T23:58:46.690Z,13.20
